Time;durP1;ratioP1;P1;durP2;ratioP2;P2;SDS_P1;SDS_P2;PMS_P1;PMS_P2;Temp;Humidity;BMP_temperature;BMP_pressure;BME280_temperature;BME280_humidity;BME280_pressure;Samples;Min_cycle;Max_cycle;Signal;HPM_P1;HPM_P2
2023/01/18 00:00:45;;;;;;;0.00;0.00;;;1.60;84.60;;;;;;4990181;28;20081;-70
2023/01/18 00:03:12;;;;;;;0.00;0.00;;;1.60;84.60;;;;;;4991360;28;20039;-70
2023/01/18 00:05:39;;;;;;;0.00;0.00;;;1.60;84.50;;;;;;4990442;28;20058;-70
2023/01/18 00:08:15;;;;;;;0.00;0.00;;;1.60;84.40;;;;;;4974124;28;20118;-70
2023/01/18 00:10:41;;;;;;;0.10;0.10;;;1.60;84.10;;;;;;4991294;28;20070;-70
2023/01/18 00:13:06;;;;;;;0.00;0.00;;;1.60;84.10;;;;;;4990395;28;20066;-70
2023/01/18 00:15:33;;;;;;;0.00;0.00;;;1.60;84.00;;;;;;4974306;28;20078;-70
2023/01/18 00:17:59;;;;;;;0.00;0.00;;;1.60;84.00;;;;;;4991138;28;20154;-70
2023/01/18 00:20:26;;;;;;;0.00;0.00;;;1.60;84.00;;;;;;4973517;28;20042;-70
2023/01/18 00:22:52;;;;;;;0.00;0.00;;;1.60;84.10;;;;;;4991321;28;20050;-70
2023/01/18 00:25:20;;;;;;;0.00;0.00;;;1.60;84.10;;;;;;4973604;28;20104;-70
2023/01/18 00:27:48;;;;;;;0.00;0.00;;;1.60;84.20;;;;;;4991332;28;20093;-70
2023/01/18 00:30:16;;;;;;;0.00;0.00;;;1.60;84.10;;;;;;4990856;28;20085;-70
2023/01/18 00:32:43;;;;;;;0.00;0.00;;;1.60;84.20;;;;;;4964122;28;20042;-70
2023/01/18 00:35:08;;;;;;;0.10;0.10;;;1.60;84.10;;;;;;4991596;28;20568;-70
2023/01/18 00:37:36;;;;;;;0.00;0.00;;;1.70;84.10;;;;;;4991969;28;20046;-70
2023/01/18 00:40:03;;;;;;;0.03;0.03;;;1.60;84.10;;;;;;4991632;28;20411;-70
2023/01/18 00:45:13;;;;;;;0.10;0.10;;;1.60;84.30;;;;;;4991543;28;20058;-70
2023/01/18 00:47:39;;;;;;;0.00;0.00;;;1.60;84.40;;;;;;4991842;28;20406;-70
2023/01/18 00:50:05;;;;;;;0.00;0.00;;;1.60;84.40;;;;;;4956600;28;20494;-70
2023/01/18 00:52:32;;;;;;;0.00;0.00;;;1.60;84.50;;;;;;4972416;28;20047;-70
2023/01/18 00:54:58;;;;;;;0.00;0.00;;;1.60;84.60;;;;;;4955173;28;20058;-70
2023/01/18 00:57:23;;;;;;;0.00;0.00;;;1.60;84.70;;;;;;4972208;28;20057;-70
2023/01/18 00:59:49;;;;;;;0.00;0.00;;;1.60;84.80;;;;;;4972117;28;20031;-70
2023/01/18 01:02:15;;;;;;;0.00;0.00;;;1.60;84.70;;;;;;4971649;28;20055;-70
2023/01/18 01:07:25;;;;;;;0.00;0.00;;;1.60;84.90;;;;;;4980554;28;20058;-70
2023/01/18 01:09:52;;;;;;;0.00;0.00;;;1.60;85.00;;;;;;4973795;28;21109;-70
2023/01/18 01:26:07;;;;;;;0.08;0.08;;;1.60;85.10;;;;;;4990738;28;20055;-70
2023/01/18 01:28:34;;;;;;;0.00;0.00;;;1.60;85.10;;;;;;4990629;28;20096;-70
2023/01/18 01:31:02;;;;;;;0.00;0.00;;;1.60;85.10;;;;;;4990308;28;20073;-70
2023/01/18 01:33:29;;;;;;;0.00;0.00;;;1.60;85.10;;;;;;4990692;28;20104;-70
2023/01/18 01:36:16;;;;;;;0.00;0.00;;;1.70;85.10;;;;;;4990264;28;20161;-70
2023/01/18 01:38:42;;;;;;;0.00;0.00;;;1.70;85.10;;;;;;4989929;28;20062;-70
2023/01/18 01:41:10;;;;;;;0.10;0.10;;;1.70;85.00;;;;;;4969951;28;20051;-70
2023/01/18 01:43:49;;;;;;;0.00;0.00;;;1.70;84.90;;;;;;4979989;28;20079;-70
2023/01/18 01:46:31;;;;;;;0.00;0.00;;;1.70;84.90;;;;;;4972782;28;20049;-71
2023/01/18 01:49:07;;;;;;;0.10;0.10;;;1.70;84.80;;;;;;4990074;28;20504;-70
2023/01/18 01:51:34;;;;;;;0.00;0.00;;;1.70;84.80;;;;;;4989997;28;20041;-70
2023/01/18 01:54:05;;;;;;;0.00;0.00;;;1.70;84.70;;;;;;4989737;28;20565;-70
2023/01/18 01:56:31;;;;;;;0.00;0.00;;;1.70;84.70;;;;;;4989083;28;20057;-71
2023/01/18 01:59:00;;;;;;;0.00;0.00;;;1.70;84.60;;;;;;4989908;28;20038;-70
2023/01/18 02:01:27;;;;;;;0.10;0.10;;;1.70;84.60;;;;;;4974647;28;20061;-70
2023/01/18 02:03:57;;;;;;;0.00;0.00;;;1.70;84.60;;;;;;4969344;28;20564;-70
2023/01/18 02:06:31;;;;;;;0.00;0.00;;;1.60;84.60;;;;;;4988382;28;20041;-71
2023/01/18 02:09:00;;;;;;;0.00;0.00;;;1.70;84.50;;;;;;4990099;28;20050;-70
2023/01/18 02:11:26;;;;;;;0.00;0.00;;;1.70;84.50;;;;;;4990150;28;20129;-70
2023/01/18 02:13:55;;;;;;;0.00;0.00;;;1.60;84.10;;;;;;4990049;28;20137;-70
2023/01/18 02:16:50;;;;;;;0.00;0.00;;;1.60;84.00;;;;;;4972456;28;20057;-70
2023/01/18 02:19:46;;;;;;;0.00;0.00;;;1.70;83.80;;;;;;4980002;28;20507;-70
2023/01/18 02:22:17;;;;;;;0.00;0.00;;;1.60;83.70;;;;;;4989456;28;20121;-70
2023/01/18 02:25:02;;;;;;;0.00;0.00;;;1.70;83.90;;;;;;4972558;28;20686;-70
2023/01/18 02:27:42;;;;;;;0.00;0.00;;;1.70;84.00;;;;;;4969273;28;20137;-70
2023/01/18 02:30:11;;;;;;;0.00;0.00;;;1.70;84.20;;;;;;4954080;28;20050;-70
2023/01/18 02:32:54;;;;;;;0.05;0.05;;;1.70;84.40;;;;;;4989626;28;20117;-70
2023/01/18 02:35:32;;;;;;;0.00;0.00;;;1.70;84.50;;;;;;4989483;28;20038;-70
2023/01/18 02:38:12;;;;;;;0.00;0.00;;;1.70;84.70;;;;;;4989578;28;20100;-70
2023/01/18 02:41:02;;;;;;;0.00;0.00;;;1.70;84.70;;;;;;4989483;28;20039;-71
2023/01/18 02:46:29;;;;;;;0.00;0.00;;;1.80;84.60;;;;;;4989774;28;20090;-70
2023/01/18 02:48:56;;;;;;;0.00;0.00;;;1.70;84.60;;;;;;4989414;28;20050;-70
2023/01/18 02:51:22;;;;;;;0.00;0.00;;;1.70;84.50;;;;;;4988901;28;20042;-70
2023/01/18 02:53:48;;;;;;;0.00;0.00;;;1.80;84.40;;;;;;4989250;28;20050;-70
2023/01/18 02:56:23;;;;;;;0.45;0.35;;;1.80;84.30;;;;;;4989376;28;20060;-70
2023/01/18 02:59:00;;;;;;;0.35;0.35;;;1.70;84.20;;;;;;4972078;28;20447;-70
2023/01/18 03:01:35;;;;;;;0.08;0.08;;;1.70;84.20;;;;;;4989364;28;20054;-70
2023/01/18 03:04:25;;;;;;;0.00;0.00;;;1.70;84.20;;;;;;4989028;28;20125;-70
2023/01/18 03:07:02;;;;;;;0.00;0.00;;;1.60;84.10;;;;;;4970573;28;20050;-70
2023/01/18 03:09:29;;;;;;;0.00;0.00;;;1.60;84.20;;;;;;4975698;28;20400;-70
2023/01/18 03:12:25;;;;;;;0.10;0.10;;;1.60;84.30;;;;;;4987360;28;20097;-70
2023/01/18 03:15:11;;;;;;;0.00;0.00;;;1.60;84.20;;;;;;4985887;28;20043;-70
2023/01/18 03:18:11;;;;;;;0.03;0.03;;;1.50;84.30;;;;;;4993071;28;20046;-70
2023/01/18 03:20:42;;;;;;;0.00;0.00;;;1.40;84.40;;;;;;4961427;28;20054;-70
2023/01/18 03:26:04;;;;;;;0.00;0.00;;;1.40;84.90;;;;;;4973357;28;20314;-70
2023/01/18 03:34:49;;;;;;;0.00;0.00;;;1.40;85.40;;;;;;4975766;28;20054;-70
2023/01/18 03:37:30;;;;;;;0.00;0.00;;;1.40;85.80;;;;;;4993421;28;20870;-70
2023/01/18 03:40:00;;;;;;;0.10;0.10;;;1.40;85.80;;;;;;4992509;28;20507;-70
2023/01/18 03:42:51;;;;;;;0.00;0.00;;;1.40;85.80;;;;;;4993208;28;20054;-70
2023/01/18 03:45:38;;;;;;;0.00;0.00;;;1.30;86.10;;;;;;4992551;28;20085;-70
2023/01/18 03:48:07;;;;;;;0.00;0.00;;;1.30;86.10;;;;;;4975567;28;20121;-70
2023/01/18 03:50:45;;;;;;;0.00;0.00;;;1.40;86.30;;;;;;4992946;28;20051;-71
2023/01/18 03:53:15;;;;;;;0.00;0.00;;;1.40;86.40;;;;;;4992871;28;20108;-70
2023/01/18 03:55:45;;;;;;;0.00;0.00;;;1.40;86.60;;;;;;4992814;28;20047;-70
2023/01/18 03:58:15;;;;;;;0.10;0.10;;;1.40;86.50;;;;;;4992786;28;20053;-70
2023/01/18 04:00:40;;;;;;;0.10;0.10;;;1.50;86.60;;;;;;4991791;28;20045;-70
2023/01/18 04:03:06;;;;;;;0.10;0.10;;;1.50;86.50;;;;;;4975298;28;20046;-70
2023/01/18 04:05:32;;;;;;;0.63;0.63;;;1.50;86.40;;;;;;4959272;28;20144;-70
2023/01/18 04:07:58;;;;;;;0.10;0.10;;;1.50;86.40;;;;;;4992570;28;20061;-70
2023/01/18 04:10:25;;;;;;;0.00;0.00;;;1.50;86.50;;;;;;4992439;28;20411;-71
2023/01/18 04:12:51;;;;;;;0.00;0.00;;;1.50;86.50;;;;;;4992669;28;20057;-70
2023/01/18 04:15:18;;;;;;;0.00;0.00;;;1.50;86.40;;;;;;4992352;28;20042;-70
2023/01/18 04:17:44;;;;;;;0.10;0.10;;;1.50;86.30;;;;;;4992453;28;20526;-70
2023/01/18 04:20:10;;;;;;;0.00;0.00;;;1.60;86.30;;;;;;4992335;28;20054;-71
2023/01/18 04:22:36;;;;;;;0.00;0.00;;;1.50;86.40;;;;;;4989735;28;20065;-71
2023/01/18 04:25:01;;;;;;;0.10;0.10;;;1.50;86.40;;;;;;4972395;28;20071;-70
2023/01/18 04:27:28;;;;;;;0.00;0.00;;;1.60;86.50;;;;;;4981203;28;20606;-70
2023/01/18 04:29:53;;;;;;;0.00;0.00;;;1.60;86.60;;;;;;4974907;28;20057;-71
2023/01/18 04:32:19;;;;;;;0.00;0.00;;;1.60;86.70;;;;;;4991782;28;20050;-71
2023/01/18 04:34:44;;;;;;;3.72;1.38;;;1.60;86.70;;;;;;4991811;28;20042;-70
2023/01/18 04:37:10;;;;;;;0.38;0.38;;;1.70;86.60;;;;;;4992044;28;20082;-70
2023/01/18 04:39:35;;;;;;;11.25;0.68;;;1.60;86.40;;;;;;4991824;28;20034;-71
2023/01/18 04:42:01;;;;;;;0.00;0.00;;;1.60;86.50;;;;;;4991697;28;20061;-70
2023/01/18 04:44:27;;;;;;;0.00;0.00;;;1.60;86.30;;;;;;4991479;28;20046;-71
2023/01/18 04:46:52;;;;;;;0.00;0.00;;;1.50;86.30;;;;;;4974578;28;20050;-70
2023/01/18 04:49:18;;;;;;;0.00;0.00;;;1.60;86.20;;;;;;4991797;28;20074;-70
2023/01/18 04:51:45;;;;;;;1.13;0.95;;;1.50;86.10;;;;;;4991745;28;20408;-70
2023/01/18 04:54:11;;;;;;;0.00;0.00;;;1.40;86.00;;;;;;4991540;28;20049;-70
2023/01/18 04:56:37;;;;;;;0.00;0.00;;;1.40;86.00;;;;;;4974077;28;20104;-70
2023/01/18 04:59:03;;;;;;;0.10;0.10;;;1.40;85.90;;;;;;4974108;28;20046;-70
2023/01/18 05:01:29;;;;;;;0.00;0.00;;;1.50;85.90;;;;;;4991564;28;20438;-71
2023/01/18 05:03:55;;;;;;;0.10;0.10;;;1.50;85.90;;;;;;4989928;28;20149;-69
2023/01/18 05:06:21;;;;;;;0.00;0.00;;;1.50;85.80;;;;;;4991379;28;20040;-70
2023/01/18 05:08:47;;;;;;;0.00;0.00;;;1.50;85.80;;;;;;4989513;28;20411;-70
2023/01/18 05:11:17;;;;;;;0.43;0.43;;;1.50;85.70;;;;;;4938607;28;20039;-69
2023/01/18 05:13:44;;;;;;;0.00;0.00;;;1.50;85.70;;;;;;4979898;28;20045;-69
2023/01/18 05:16:18;;;;;;;0.20;0.20;;;1.50;85.60;;;;;;4991541;28;20096;-69
2023/01/18 05:18:44;;;;;;;0.00;0.00;;;1.50;85.50;;;;;;4991065;28;20126;-69
2023/01/18 05:21:11;;;;;;;0.00;0.00;;;1.50;85.50;;;;;;4990773;28;20053;-69
2023/01/18 05:23:38;;;;;;;0.00;0.00;;;1.50;85.50;;;;;;4990997;28;20459;-70
2023/01/18 05:26:12;;;;;;;0.08;0.08;;;1.50;85.50;;;;;;4990752;28;20046;-70
2023/01/18 05:28:38;;;;;;;0.00;0.00;;;1.60;85.50;;;;;;4990632;28;20042;-69
2023/01/18 05:31:03;;;;;;;0.00;0.00;;;1.50;85.40;;;;;;4989996;28;20554;-69
2023/01/18 05:33:29;;;;;;;0.10;0.10;;;1.60;85.40;;;;;;4989280;28;20113;-73
2023/01/18 05:35:54;;;;;;;0.00;0.00;;;1.60;85.40;;;;;;4990591;28;20522;-69
2023/01/18 05:38:22;;;;;;;0.17;0.17;;;1.60;85.40;;;;;;4989378;28;20047;-69
2023/01/18 05:40:51;;;;;;;0.00;0.00;;;1.60;85.20;;;;;;4988887;28;20050;-69
2023/01/18 05:43:17;;;;;;;0.00;0.00;;;1.60;85.30;;;;;;4988672;28;20388;-70
2023/01/18 05:45:43;;;;;;;0.10;0.10;;;1.50;85.20;;;;;;4989266;28;20052;-69
2023/01/18 05:48:10;;;;;;;0.05;0.05;;;1.50;85.10;;;;;;4955820;28;20414;-69
2023/01/18 05:50:38;;;;;;;0.00;0.00;;;1.60;85.00;;;;;;4973910;28;20667;-69
2023/01/18 05:53:03;;;;;;;0.00;0.00;;;1.50;85.00;;;;;;4988914;28;20050;-69
2023/01/18 05:55:29;;;;;;;0.10;0.10;;;1.50;85.00;;;;;;4989454;28;20112;-69
2023/01/18 05:57:55;;;;;;;0.00;0.00;;;1.50;84.90;;;;;;4989235;28;20048;-69
2023/01/18 06:00:20;;;;;;;0.03;0.03;;;1.50;84.80;;;;;;4988471;28;20073;-69
2023/01/18 06:02:46;;;;;;;0.00;0.00;;;1.60;84.90;;;;;;4989145;28;20046;-69
2023/01/18 06:05:12;;;;;;;0.10;0.10;;;1.50;84.90;;;;;;4993883;28;20038;-69
2023/01/18 06:07:37;;;;;;;0.00;0.00;;;1.60;84.90;;;;;;4988844;28;20038;-69
2023/01/18 06:10:03;;;;;;;0.00;0.00;;;1.60;84.80;;;;;;4988574;28;20046;-69
2023/01/18 06:12:29;;;;;;;0.10;0.10;;;1.60;84.80;;;;;;4990169;28;20601;-69
2023/01/18 06:14:54;;;;;;;0.00;0.00;;;1.60;84.90;;;;;;4988963;28;20058;-69
2023/01/18 06:17:21;;;;;;;0.10;0.10;;;1.60;84.90;;;;;;4987670;28;20414;-69
2023/01/18 06:19:46;;;;;;;0.00;0.00;;;1.60;84.90;;;;;;4988423;28;20042;-69
2023/01/18 06:22:12;;;;;;;0.00;0.00;;;1.60;84.80;;;;;;4979587;28;20057;-69
2023/01/18 06:24:37;;;;;;;0.00;0.00;;;1.70;84.90;;;;;;4988787;28;20046;-69
2023/01/18 06:27:03;;;;;;;0.00;0.00;;;1.60;84.90;;;;;;4972548;28;20038;-69
2023/01/18 06:29:29;;;;;;;0.00;0.00;;;1.60;84.90;;;;;;4989845;28;20054;-69
2023/01/18 06:31:55;;;;;;;0.10;0.10;;;1.70;84.90;;;;;;4955688;28;20072;-69
2023/01/18 06:34:20;;;;;;;0.10;0.10;;;1.70;84.80;;;;;;4988573;28;20692;-69
2023/01/18 06:36:46;;;;;;;0.00;0.00;;;1.70;84.90;;;;;;4955358;28;20053;-68
2023/01/18 06:39:12;;;;;;;0.00;0.00;;;1.70;84.90;;;;;;4988317;28;20752;-69
2023/01/18 06:41:38;;;;;;;0.10;0.10;;;1.70;84.90;;;;;;4966521;28;20046;-69
2023/01/18 06:44:04;;;;;;;0.00;0.00;;;1.70;84.90;;;;;;4988105;28;20062;-69
2023/01/18 06:46:30;;;;;;;0.00;0.00;;;1.60;84.90;;;;;;4988394;28;20125;-69
2023/01/18 06:48:56;;;;;;;0.00;0.00;;;1.70;85.00;;;;;;4987275;28;20065;-71
2023/01/18 06:51:23;;;;;;;0.00;0.00;;;1.60;85.00;;;;;;4987401;28;20503;-71
2023/01/18 06:53:49;;;;;;;0.10;0.10;;;1.70;85.00;;;;;;4988798;28;20046;-71
2023/01/18 06:56:15;;;;;;;0.00;0.00;;;1.70;85.00;;;;;;4984491;28;20651;-72
2023/01/18 06:58:41;;;;;;;0.00;0.00;;;1.70;84.90;;;;;;4955975;28;20064;-72
2023/01/18 07:01:07;;;;;;;0.00;0.00;;;1.70;85.00;;;;;;4971218;28;20049;-71
2023/01/18 07:03:33;;;;;;;0.00;0.00;;;1.70;84.90;;;;;;4988693;28;20403;-71
2023/01/18 07:06:01;;;;;;;0.10;0.10;;;1.70;84.90;;;;;;4988098;28;20045;-71
2023/01/18 07:08:31;;;;;;;0.10;0.10;;;1.70;84.80;;;;;;4955559;28;20038;-71
2023/01/18 07:10:58;;;;;;;0.00;0.00;;;1.70;84.80;;;;;;4988440;28;20500;-71
2023/01/18 07:13:24;;;;;;;0.00;0.00;;;1.70;84.70;;;;;;4985777;28;20507;-71
2023/01/18 07:15:55;;;;;;;0.00;0.00;;;1.70;84.60;;;;;;4983413;28;20162;-68
2023/01/18 07:18:22;;;;;;;0.00;0.00;;;1.70;84.60;;;;;;4970346;28;20034;-70
2023/01/18 07:20:58;;;;;;;0.10;0.10;;;1.80;84.80;;;;;;4960859;28;20039;-69
2023/01/18 07:23:24;;;;;;;0.00;0.00;;;2.90;86.70;;;;;;4966357;28;20050;-70
2023/01/18 07:26:02;;;;;;;0.00;0.00;;;3.70;86.20;;;;;;4988954;28;20050;-70
2023/01/18 07:28:29;;;;;;;0.00;0.00;;;3.60;84.70;;;;;;4989541;28;20043;-70
2023/01/18 07:30:55;;;;;;;0.00;0.00;;;3.20;83.20;;;;;;4989526;28;20058;-70
2023/01/18 07:33:20;;;;;;;0.00;0.00;;;2.90;82.90;;;;;;4988755;28;20056;-71
2023/01/18 07:35:46;;;;;;;0.10;0.10;;;2.70;82.80;;;;;;4955098;28;20054;-70
2023/01/18 07:38:12;;;;;;;0.10;0.10;;;2.40;82.80;;;;;;4955248;28;20470;-68
2023/01/18 07:40:37;;;;;;;0.00;0.00;;;2.20;82.80;;;;;;4971783;28;20643;-68
2023/01/18 07:43:03;;;;;;;0.00;0.00;;;2.10;83.20;;;;;;4971445;28;20054;-68
2023/01/18 07:45:29;;;;;;;0.00;0.00;;;2.00;83.60;;;;;;4987511;28;20447;-68
2023/01/18 07:47:54;;;;;;;0.10;0.10;;;1.80;83.80;;;;;;4988956;28;20080;-68
2023/01/18 07:50:21;;;;;;;0.00;0.00;;;1.80;83.90;;;;;;4989211;28;20042;-69
2023/01/18 07:52:47;;;;;;;0.00;0.00;;;1.60;84.30;;;;;;4990178;28;20086;-68
2023/01/18 07:55:12;;;;;;;0.00;0.00;;;1.50;84.70;;;;;;4991745;28;20046;-67
2023/01/18 07:57:38;;;;;;;0.00;0.00;;;1.40;84.80;;;;;;4991159;28;20038;-67
2023/01/18 08:00:06;;;;;;;0.00;0.00;;;1.30;85.10;;;;;;4992155;28;20088;-67
2023/01/18 08:02:32;;;;;;;0.00;0.00;;;1.30;85.20;;;;;;4982648;28;20042;-67
2023/01/18 08:04:58;;;;;;;0.10;0.10;;;1.30;85.40;;;;;;4992427;28;20549;-68
2023/01/18 08:07:24;;;;;;;0.10;0.10;;;1.20;85.80;;;;;;4992656;28;20043;-68
2023/01/18 08:09:50;;;;;;;0.00;0.00;;;1.20;86.10;;;;;;4991888;28;20537;-67
2023/01/18 08:12:17;;;;;;;0.00;0.00;;;1.20;86.30;;;;;;4958126;28;20054;-68
2023/01/18 08:14:44;;;;;;;0.00;0.00;;;1.20;86.40;;;;;;4975519;28;20141;-68
2023/01/18 08:17:09;;;;;;;0.00;0.00;;;1.20;86.50;;;;;;4992625;28;20050;-68
2023/01/18 08:19:35;;;;;;;0.00;0.00;;;1.20;86.60;;;;;;4991580;28;20042;-68
2023/01/18 08:22:01;;;;;;;0.05;0.05;;;1.20;86.70;;;;;;4992001;28;20522;-68
2023/01/18 08:24:27;;;;;;;0.00;0.00;;;1.20;86.80;;;;;;4991858;28;20045;-68
2023/01/18 08:26:52;;;;;;;0.00;0.00;;;1.20;87.00;;;;;;4990376;28;20048;-67
2023/01/18 08:29:18;;;;;;;0.00;0.00;;;1.20;87.00;;;;;;4991433;28;20053;-68
2023/01/18 08:31:43;;;;;;;0.20;0.20;;;1.10;87.20;;;;;;4991885;28;20041;-67
2023/01/18 08:34:09;;;;;;;0.00;0.00;;;1.20;87.30;;;;;;4991024;28;20042;-68
2023/01/18 08:36:35;;;;;;;0.00;0.00;;;1.10;87.50;;;;;;4991545;28;20121;-68
2023/01/18 08:39:00;;;;;;;0.00;0.00;;;1.10;87.60;;;;;;4992044;28;20054;-68
2023/01/18 08:41:29;;;;;;;0.00;0.00;;;1.20;87.70;;;;;;4991277;28;20149;-68
2023/01/18 08:43:56;;;;;;;0.00;0.00;;;1.10;87.70;;;;;;4973050;28;20142;-68
2023/01/18 08:46:23;;;;;;;0.00;0.00;;;1.20;87.80;;;;;;4991666;28;20042;-68
2023/01/18 08:48:50;;;;;;;0.00;0.00;;;1.20;87.90;;;;;;4991121;28;20038;-68
2023/01/18 08:51:20;;;;;;;0.00;0.00;;;1.20;87.90;;;;;;4990810;28;20054;-67
2023/01/18 08:53:46;;;;;;;0.10;0.10;;;1.30;87.90;;;;;;4991395;28;20046;-67
2023/01/18 08:56:12;;;;;;;0.10;0.10;;;1.30;87.80;;;;;;4991101;28;20048;-68
2023/01/18 08:58:38;;;;;;;0.03;0.03;;;1.40;87.80;;;;;;4991606;28;20038;-67
2023/01/18 09:01:07;;;;;;;0.57;0.57;;;1.40;87.80;;;;;;4990822;28;20049;-67
2023/01/18 09:03:34;;;;;;;0.05;0.05;;;1.40;87.80;;;;;;4990395;28;20042;-67
2023/01/18 09:06:00;;;;;;;0.00;0.00;;;1.40;87.80;;;;;;4990788;28;20487;-67
2023/01/18 09:08:26;;;;;;;0.10;0.10;;;1.40;88.10;;;;;;4990418;28;20039;-67
2023/01/18 09:10:52;;;;;;;0.00;0.00;;;1.60;88.10;;;;;;4991106;28;20128;-67
2023/01/18 09:13:19;;;;;;;0.00;0.00;;;1.60;88.10;;;;;;4990607;28;20615;-67
2023/01/18 09:15:45;;;;;;;0.10;0.10;;;1.60;88.00;;;;;;4957470;28;20049;-67
2023/01/18 09:18:14;;;;;;;0.00;0.00;;;1.60;87.90;;;;;;4991249;28;20053;-67
2023/01/18 09:20:40;;;;;;;0.00;0.00;;;1.60;88.00;;;;;;4990542;28;20246;-66
2023/01/18 09:23:07;;;;;;;0.00;0.00;;;1.70;88.10;;;;;;4990068;28;20176;-66
2023/01/18 09:25:35;;;;;;;0.00;0.00;;;1.60;88.30;;;;;;4990537;28;20185;-67
2023/01/18 09:28:02;;;;;;;0.00;0.00;;;1.70;88.40;;;;;;4990749;28;20562;-67
2023/01/18 09:30:28;;;;;;;0.00;0.00;;;1.80;88.80;;;;;;4991086;28;20034;-66
2023/01/18 09:32:55;;;;;;;0.00;0.00;;;1.90;88.80;;;;;;4956886;28;20125;-67
2023/01/18 09:35:21;;;;;;;0.00;0.00;;;1.90;88.70;;;;;;4990648;28;20132;-67
2023/01/18 09:37:47;;;;;;;0.00;0.00;;;1.90;88.70;;;;;;4989981;28;20089;-67
2023/01/18 09:40:18;;;;;;;0.05;0.05;;;2.00;88.70;;;;;;4990301;28;20054;-66
2023/01/18 09:42:45;;;;;;;0.10;0.10;;;2.00;88.60;;;;;;4990752;28;20061;-66
2023/01/18 09:45:30;;;;;;;0.00;0.00;;;2.10;88.70;;;;;;4971094;28;20073;-67
2023/01/18 09:48:11;;;;;;;0.08;0.08;;;2.20;88.90;;;;;;4986685;28;20392;-71
2023/01/18 09:50:44;;;;;;;0.00;0.00;;;2.30;88.70;;;;;;4990227;28;20476;-65
2023/01/18 09:53:35;;;;;;;0.00;0.00;;;2.40;88.80;;;;;;4972696;28;20045;-67
2023/01/18 09:56:19;;;;;;;0.10;0.10;;;2.70;89.10;;;;;;4958958;28;20138;-65
2023/01/18 09:58:51;;;;;;;0.00;0.00;;;2.70;88.70;;;;;;4960669;28;20046;-65
2023/01/18 10:01:21;;;;;;;0.17;0.17;;;2.80;88.50;;;;;;4989507;28;20101;-65
2023/01/18 10:03:49;;;;;;;0.00;0.00;;;2.80;88.30;;;;;;4990091;28;20058;-66
2023/01/18 10:06:25;;;;;;;0.57;0.45;;;2.90;88.30;;;;;;4990001;28;20578;-65
2023/01/18 10:09:00;;;;;;;0.00;0.00;;;3.00;88.20;;;;;;4990564;28;20109;-68
2023/01/18 10:11:46;;;;;;;0.10;0.10;;;3.00;88.10;;;;;;4972684;28;20121;-66
2023/01/18 10:14:34;;;;;;;0.00;0.00;;;3.00;87.80;;;;;;4990153;28;20499;-65
2023/01/18 10:17:03;;;;;;;0.00;0.00;;;3.00;87.60;;;;;;4988642;28;20088;-66
2023/01/18 10:19:31;;;;;;;0.10;0.10;;;3.00;87.80;;;;;;4989047;28;20403;-65
2023/01/18 10:22:02;;;;;;;0.00;0.00;;;3.10;87.80;;;;;;4971936;28;20053;-65
2023/01/18 10:25:12;;;;;;;0.75;0.75;;;3.20;87.80;;;;;;4989057;28;20100;-65
2023/01/18 10:28:05;;;;;;;0.00;0.00;;;3.30;87.70;;;;;;4989881;28;20061;-65
2023/01/18 10:30:30;;;;;;;0.00;0.00;;;3.40;87.50;;;;;;4989656;28;20042;-65
2023/01/18 10:32:59;;;;;;;0.00;0.00;;;3.50;87.40;;;;;;4989652;28;20045;-65
2023/01/18 10:35:44;;;;;;;0.03;0.03;;;3.60;87.20;;;;;;4989925;28;20398;-65
2023/01/18 10:38:14;;;;;;;0.00;0.00;;;3.60;86.90;;;;;;4979949;28;20100;-65
2023/01/18 10:40:42;;;;;;;0.00;0.00;;;3.70;86.80;;;;;;4989578;28;20129;-64
2023/01/18 10:43:14;;;;;;;0.00;0.00;;;3.80;86.70;;;;;;4989603;28;20050;-63
2023/01/18 10:45:40;;;;;;;0.00;0.00;;;3.90;86.60;;;;;;4989709;28;20050;-63
2023/01/18 10:48:26;;;;;;;0.05;0.05;;;3.90;86.60;;;;;;4989382;28;20105;-63
2023/01/18 10:50:58;;;;;;;0.00;0.00;;;4.00;86.40;;;;;;4989343;28;20773;-63
2023/01/18 10:53:35;;;;;;;;;;;4.00;86.20;;;;;;4986202;28;20196;-63
2023/01/18 10:56:06;;;;;;;1.15;1.05;;;4.10;86.10;;;;;;4989266;28;19922;-63
2023/01/18 10:58:39;;;;;;;0.10;0.10;;;4.10;86.00;;;;;;4989460;28;20439;-64
2023/01/18 11:01:12;;;;;;;0.00;0.00;;;4.10;85.90;;;;;;4989381;28;20047;-63
2023/01/18 11:03:44;;;;;;;0.00;0.00;;;4.10;85.80;;;;;;4989957;28;20053;-63
2023/01/18 11:06:10;;;;;;;0.00;0.00;;;4.20;85.60;;;;;;4989056;28;20030;-63
2023/01/18 11:08:36;;;;;;;0.20;0.20;;;4.20;85.70;;;;;;4988665;28;20130;-63
2023/01/18 11:11:14;;;;;;;0.00;0.00;;;4.20;85.60;;;;;;4989336;28;20045;-63
2023/01/18 11:13:49;;;;;;;0.00;0.00;;;4.20;85.40;;;;;;4988909;28;20108;-68
2023/01/18 11:16:21;;;;;;;0.00;0.00;;;4.40;86.30;;;;;;4986014;28;20125;-68
2023/01/18 11:18:59;;;;;;;0.00;0.00;;;4.30;85.40;;;;;;4989137;28;20034;-67
2023/01/18 11:21:29;;;;;;;0.00;0.00;;;4.20;85.00;;;;;;4989442;28;20680;-68
2023/01/18 11:23:55;;;;;;;0.00;0.00;;;4.30;85.00;;;;;;4955253;28;20042;-69
2023/01/18 11:26:22;;;;;;;0.10;0.10;;;4.30;85.10;;;;;;4970696;28;20101;-68
2023/01/18 11:29:13;;;;;;;0.00;0.00;;;4.60;85.00;;;;;;4958730;28;20042;-68
2023/01/18 11:31:45;;;;;;;0.00;0.00;;;4.50;84.50;;;;;;4987961;28;20121;-68
2023/01/18 11:34:37;;;;;;;;;;;4.50;84.40;;;;;;4993041;28;20054;-68
2023/01/18 11:37:03;;;;;;;0.00;0.00;;;4.60;84.10;;;;;;4971203;28;20366;-68
2023/01/18 11:39:34;;;;;;;0.10;0.10;;;4.60;84.00;;;;;;4992508;28;20404;-68
2023/01/18 11:42:17;;;;;;;0.10;0.10;;;4.60;84.00;;;;;;4990964;28;20054;-68
2023/01/18 11:45:07;;;;;;;0.00;0.00;;;4.70;84.10;;;;;;4959308;28;20050;-68
2023/01/18 11:47:54;;;;;;;0.20;0.20;;;4.70;83.90;;;;;;4992235;28;20049;-69
2023/01/18 11:50:30;;;;;;;0.00;0.00;;;4.70;83.70;;;;;;4991271;28;20070;-69
2023/01/18 11:53:35;;;;;;;0.77;0.77;;;4.70;83.50;;;;;;4992442;28;20077;-69
2023/01/18 11:56:14;;;;;;;0.00;0.00;;;4.70;83.00;;;;;;4968725;28;20137;-68
2023/01/18 11:58:40;;;;;;;0.25;0.25;;;4.70;82.90;;;;;;4990841;28;20388;-68
2023/01/18 12:01:34;;;;;;;0.95;0.95;;;4.90;82.90;;;;;;4991585;28;20049;-68
2023/01/18 12:04:24;;;;;;;0.00;0.00;;;4.80;82.80;;;;;;4991123;28;20121;-68
2023/01/18 12:07:16;;;;;;;0.00;0.00;;;4.80;82.70;;;;;;4990887;28;20042;-68
2023/01/18 12:09:52;;;;;;;0.05;0.05;;;4.80;82.40;;;;;;4974704;28;20038;-68
2023/01/18 12:12:52;;;;;;;0.00;0.00;;;4.90;82.10;;;;;;4992322;28;20035;-68
2023/01/18 12:15:55;;;;;;;0.20;0.20;;;4.80;81.60;;;;;;4984651;28;20046;-68
2023/01/18 12:18:30;;;;;;;0.00;0.00;;;4.90;81.40;;;;;;4959238;28;20054;-68
2023/01/18 12:21:10;;;;;;;0.00;0.00;;;4.90;81.50;;;;;;4959479;28;20057;-68
2023/01/18 12:23:48;;;;;;;0.00;0.00;;;5.00;81.40;;;;;;4993314;28;20085;-68
2023/01/18 12:26:23;;;;;;;0.00;0.00;;;4.90;81.30;;;;;;4992775;28;20409;-68
2023/01/18 12:29:07;;;;;;;0.10;0.10;;;4.90;80.50;;;;;;4993246;28;20052;-68
2023/01/18 12:31:56;;;;;;;0.25;0.25;;;4.90;79.80;;;;;;4993143;28;20050;-68
2023/01/18 12:34:47;;;;;;;0.00;0.00;;;4.90;80.00;;;;;;4988603;28;20054;-68
2023/01/18 12:37:42;;;;;;;0.00;0.00;;;4.90;80.20;;;;;;4988559;28;20577;-68
2023/01/18 12:40:30;;;;;;;1.55;1.30;;;4.90;80.10;;;;;;4992480;28;20137;-67
2023/01/18 12:43:25;;;;;;;0.00;0.00;;;4.90;80.50;;;;;;4976177;28;20059;-68
2023/01/18 12:45:59;;;;;;;0.00;0.00;;;4.80;80.30;;;;;;4983345;28;20062;-68
2023/01/18 12:48:31;;;;;;;0.00;0.00;;;4.80;80.50;;;;;;4991588;28;20046;-68
2023/01/18 12:50:59;;;;;;;;;;;4.90;80.40;;;;;;4982879;28;20046;-68
2023/01/18 12:53:55;;;;;;;0.00;0.00;;;4.80;80.30;;;;;;4973936;28;20764;-67
2023/01/18 12:56:26;;;;;;;0.00;0.00;;;4.80;80.10;;;;;;4973508;28;20042;-68
2023/01/18 12:59:03;;;;;;;0.32;0.32;;;4.70;80.30;;;;;;4991638;28;20124;-68
2023/01/18 13:01:39;;;;;;;0.00;0.00;;;4.70;80.30;;;;;;4991231;28;20042;-67
2023/01/18 13:04:12;;;;;;;0.00;0.00;;;4.70;80.70;;;;;;4958074;28;20126;-68
2023/01/18 13:06:39;;;;;;;0.00;0.00;;;4.70;81.30;;;;;;4991488;28;20051;-68
2023/01/18 13:09:32;;;;;;;1.75;0.57;;;4.60;81.60;;;;;;4973100;28;20482;-67
2023/01/18 13:12:01;;;;;;;0.00;0.00;;;4.70;81.80;;;;;;4983143;28;20072;-68
2023/01/18 13:14:40;;;;;;;0.00;0.00;;;4.70;81.60;;;;;;4989341;28;21559;-68
2023/01/18 13:17:24;;;;;;;0.00;0.00;;;4.70;81.80;;;;;;4988878;28;20112;-68
2023/01/18 13:19:57;;;;;;;0.10;0.10;;;4.60;82.10;;;;;;4980164;28;20045;-69
2023/01/18 13:22:30;;;;;;;0.28;0.28;;;4.60;82.40;;;;;;4989546;28;20089;-68
2023/01/18 13:25:28;;;;;;;0.00;0.00;;;4.60;82.70;;;;;;4989876;28;20054;-69
2023/01/18 13:27:58;;;;;;;0.00;0.00;;;4.60;82.80;;;;;;4935278;28;20062;-67
2023/01/18 13:30:25;;;;;;;0.00;0.00;;;4.60;82.90;;;;;;4971453;28;20381;-68
2023/01/18 13:32:52;;;;;;;0.17;0.17;;;4.60;82.50;;;;;;4988792;28;20085;-68
2023/01/18 13:35:23;;;;;;;0.05;0.05;;;4.60;82.40;;;;;;4987500;28;20077;-68
2023/01/18 13:37:54;;;;;;;0.20;0.20;;;4.60;82.10;;;;;;4987937;28;20061;-68
2023/01/18 13:40:22;;;;;;;0.00;0.00;;;4.60;82.10;;;;;;4970687;28;20311;-68
2023/01/18 13:42:49;;;;;;;0.00;0.00;;;4.60;82.40;;;;;;4952104;28;1057654;-68
2023/01/18 13:45:28;;;;;;;0.00;0.00;;;4.60;82.80;;;;;;4970809;28;20472;-69
2023/01/18 13:48:04;;;;;;;0.08;0.08;;;4.60;82.90;;;;;;4988896;28;20089;-68
2023/01/18 13:50:36;;;;;;;0.00;0.00;;;4.60;82.90;;;;;;4987587;28;20046;-68